sensor_id;sensor_type;location;lat;lon;timestamp;pressure;altitude;pressure_sealevel;temperature;humidity
36354;BME280;22383;51.114;13.666;2023-03-11T00:00:31;67258.81;;;0.57;100.00
36354;BME280;22383;51.114;13.666;2023-03-11T00:03:00;67241.00;;;0.44;100.00
36354;BME280;22383;51.114;13.666;2023-03-11T00:05:34;67229.00;;;0.30;100.00
36354;BME280;22383;51.114;13.666;2023-03-11T00:08:03;67221.69;;;0.24;100.00
36354;BME280;22383;51.114;13.666;2023-03-11T00:10:33;67214.94;;;0.17;100.00
36354;BME280;22383;51.114;13.666;2023-03-11T00:13:02;67211.94;;;0.12;100.00
36354;BME280;22383;51.114;13.666;2023-03-11T00:15:30;67195.88;;;0.00;100.00
36354;BME280;22383;51.114;13.666;2023-03-11T00:17:59;67193.75;;;-0.07;100.00
36354;BME280;22383;51.114;13.666;2023-03-11T00:20:28;67177.66;;;-0.19;100.00
36354;BME280;22383;51.114;13.666;2023-03-11T00:22:56;67172.25;;;-0.22;100.00
36354;BME280;22383;51.114;13.666;2023-03-11T00:25:25;67161.78;;;-0.29;100.00
36354;BME280;22383;51.114;13.666;2023-03-11T00:27:54;67161.38;;;-0.34;100.00
36354;BME280;22383;51.114;13.666;2023-03-11T00:30:22;67107.84;;;-0.40;100.00
36354;BME280;22383;51.114;13.666;2023-03-11T00:32:53;67146.19;;;-0.48;100.00
36354;BME280;22383;51.114;13.666;2023-03-11T00:35:27;67135.53;;;-0.58;100.00
36354;BME280;22383;51.114;13.666;2023-03-11T00:37:57;67132.50;;;-0.63;100.00
36354;BME280;22383;51.114;13.666;2023-03-11T00:40:28;67122.25;;;-0.67;100.00
36354;BME280;22383;51.114;13.666;2023-03-11T00:42:56;67122.81;;;-0.67;100.00
36354;BME280;22383;51.114;13.666;2023-03-11T00:45:25;67119.47;;;-0.70;100.00
36354;BME280;22383;51.114;13.666;2023-03-11T00:47:53;67118.13;;;-0.73;100.00
36354;BME280;22383;51.114;13.666;2023-03-11T00:50:27;67118.13;;;-0.73;100.00
36354;BME280;22383;51.114;13.666;2023-03-11T00:52:55;67115.84;;;-0.76;100.00
36354;BME280;22383;51.114;13.666;2023-03-11T00:55:26;67113.63;;;-0.78;100.00
36354;BME280;22383;51.114;13.666;2023-03-11T00:57:57;67109.13;;;-0.82;100.00
36354;BME280;22383;51.114;13.666;2023-03-11T01:00:30;67103.72;;;-0.84;100.00
36354;BME280;22383;51.114;13.666;2023-03-11T01:02:59;67103.16;;;-0.85;100.00
36354;BME280;22383;51.114;13.666;2023-03-11T01:05:29;67102.03;;;-0.86;100.00
36354;BME280;22383;51.114;13.666;2023-03-11T01:07:58;67107.44;;;-0.83;100.00
36354;BME280;22383;51.114;13.666;2023-03-11T01:10:27;67100.56;;;-0.85;100.00
36354;BME280;22383;51.114;13.666;2023-03-11T01:12:55;67108.56;;;-0.82;100.00
36354;BME280;22383;51.114;13.666;2023-03-11T01:15:31;67104.84;;;-0.83;100.00
36354;BME280;22383;51.114;13.666;2023-03-11T01:18:00;67111.72;;;-0.82;100.00
36354;BME280;22383;51.114;13.666;2023-03-11T01:20:28;67107.44;;;-0.83;100.00
36354;BME280;22383;51.114;13.666;2023-03-11T01:22:55;67104.28;;;-0.84;100.00
36354;BME280;22383;51.114;13.666;2023-03-11T01:25:23;67103.38;;;-0.82;100.00
36354;BME280;22383;51.114;13.666;2023-03-11T01:27:51;67101.47;;;-0.86;100.00
36354;BME280;22383;51.114;13.666;2023-03-11T01:30:23;67102.97;;;-0.87;100.00
36354;BME280;22383;51.114;13.666;2023-03-11T01:32:52;67096.06;;;-0.89;100.00
36354;BME280;22383;51.114;13.666;2023-03-11T01:35:22;67053.41;;;-0.90;100.00
36354;BME280;22383;51.114;13.666;2023-03-11T01:37:50;67094.94;;;-0.90;100.00
36354;BME280;22383;51.114;13.666;2023-03-11T01:40:25;67093.63;;;-0.93;100.00
36354;BME280;22383;51.114;13.666;2023-03-11T01:42:53;67095.53;;;-0.89;100.00
36354;BME280;22383;51.114;13.666;2023-03-11T01:45:41;67099.59;;;-0.90;100.00
36354;BME280;22383;51.114;13.666;2023-03-11T01:48:11;67096.75;;;-0.93;100.00
36354;BME280;22383;51.114;13.666;2023-03-11T01:50:42;67094.75;;;-0.92;100.00
36354;BME280;22383;51.114;13.666;2023-03-11T01:53:14;67093.97;;;-0.96;100.00
36354;BME280;22383;51.114;13.666;2023-03-11T01:55:44;67091.72;;;-0.98;100.00
36354;BME280;22383;51.114;13.666;2023-03-11T01:58:16;67088.56;;;-0.98;100.00
36354;BME280;22383;51.114;13.666;2023-03-11T02:00:45;67085.97;;;-0.98;100.00
36354;BME280;22383;51.114;13.666;2023-03-11T02:03:20;67090.81;;;-0.96;100.00
36354;BME280;22383;51.114;13.666;2023-03-11T02:05:51;67087.78;;;-1.01;100.00
36354;BME280;22383;51.114;13.666;2023-03-11T02:08:20;67080.34;;;-1.03;100.00
36354;BME280;22383;51.114;13.666;2023-03-11T02:10:49;67079.22;;;-1.04;100.00
36354;BME280;22383;51.114;13.666;2023-03-11T02:13:18;67082.72;;;-1.06;100.00
36354;BME280;22383;51.114;13.666;2023-03-11T02:15:46;67082.72;;;-1.06;100.00
36354;BME280;22383;51.114;13.666;2023-03-11T02:18:14;67076.44;;;-1.07;100.00
36354;BME280;22383;51.114;13.666;2023-03-11T02:23:54;67075.44;;;-1.12;100.00
36354;BME280;22383;51.114;13.666;2023-03-11T02:26:38;67073.41;;;-1.12;100.00
36354;BME280;22383;51.114;13.666;2023-03-11T02:29:08;67078.25;;;-1.10;100.00
36354;BME280;22383;51.114;13.666;2023-03-11T02:31:38;67070.81;;;-1.12;100.00
36354;BME280;22383;51.114;13.666;2023-03-11T02:34:16;67077.69;;;-1.10;100.00
36354;BME280;22383;51.114;13.666;2023-03-11T02:36:48;67071.94;;;-1.11;100.00
36354;BME280;22383;51.114;13.666;2023-03-11T02:39:26;67071.94;;;-1.11;100.00
36354;BME280;22383;51.114;13.666;2023-03-11T02:41:55;67076.22;;;-1.09;100.00
36354;BME280;22383;51.114;13.666;2023-03-11T02:44:23;67078.81;;;-1.09;100.00
36354;BME280;22383;51.114;13.666;2023-03-11T02:46:51;67073.41;;;-1.12;100.00
36354;BME280;22383;51.114;13.666;2023-03-11T02:49:21;67071.72;;;-1.13;100.00
36354;BME280;22383;51.114;13.666;2023-03-11T02:51:49;67074.09;;;-1.16;100.00
36354;BME280;22383;51.114;13.666;2023-03-11T02:54:16;67061.81;;;-1.20;100.00
36354;BME280;22383;51.114;13.666;2023-03-11T02:56:44;67062.19;;;-1.22;100.00
36354;BME280;22383;51.114;13.666;2023-03-11T02:59:12;67058.81;;;-1.25;100.00
36354;BME280;22383;51.114;13.666;2023-03-11T03:01:40;67061.41;;;-1.25;100.00
36354;BME280;22383;51.114;13.666;2023-03-11T03:04:07;67057.69;;;-1.26;100.00
36354;BME280;22383;51.114;13.666;2023-03-11T03:06:37;67058.03;;;-1.28;100.00
36354;BME280;22383;51.114;13.666;2023-03-11T03:09:05;67053.19;;;-1.30;100.00
36354;BME280;22383;51.114;13.666;2023-03-11T03:11:32;67054.69;;;-1.31;100.00
36354;BME280;22383;51.114;13.666;2023-03-11T03:14:00;67046.66;;;-1.34;100.00
36354;BME280;22383;51.114;13.666;2023-03-11T03:16:27;67041.63;;;-1.39;100.00
36354;BME280;22383;51.114;13.666;2023-03-11T03:18:55;67044.22;;;-1.39;100.00
36354;BME280;22383;51.114;13.666;2023-03-11T03:21:22;67040.84;;;-1.42;100.00
36354;BME280;22383;51.114;13.666;2023-03-11T03:23:50;67039.16;;;-1.43;100.00
36354;BME280;22383;51.114;13.666;2023-03-11T03:26:17;67035.59;;;-1.49;100.00
36354;BME280;22383;51.114;13.666;2023-03-11T03:28:48;67034.47;;;-1.50;100.00
36354;BME280;22383;51.114;13.666;2023-03-11T03:31:15;67028.50;;;-1.53;100.00
36354;BME280;22383;51.114;13.666;2023-03-11T03:33:44;67027.59;;;-1.52;100.00
36354;BME280;22383;51.114;13.666;2023-03-11T03:36:13;67023.09;;;-1.56;100.00
36354;BME280;22383;51.114;13.666;2023-03-11T03:38:44;67013.41;;;-1.60;100.00
36354;BME280;22383;51.114;13.666;2023-03-11T03:41:13;67024.38;;;-1.59;100.00
36354;BME280;22383;51.114;13.666;2023-03-11T03:43:42;67021.56;;;-1.62;100.00
36354;BME280;22383;51.114;13.666;2023-03-11T03:46:09;67019.53;;;-1.61;100.00
36354;BME280;22383;51.114;13.666;2023-03-11T03:48:41;67016.16;;;-1.64;100.00
36354;BME280;22383;51.114;13.666;2023-03-11T03:51:11;67013.91;;;-1.66;100.00
36354;BME280;22383;51.114;13.666;2023-03-11T03:53:45;67013.56;;;-1.64;100.00
36354;BME280;22383;51.114;13.666;2023-03-11T03:56:16;67019.66;;;-1.66;100.00
36354;BME280;22383;51.114;13.666;2023-03-11T03:58:44;66971.28;;;-1.67;100.00
36354;BME280;22383;51.114;13.666;2023-03-11T04:01:11;67014.81;;;-1.68;100.00
36354;BME280;22383;51.114;13.666;2023-03-11T04:03:40;67006.47;;;-1.68;100.00
36354;BME280;22383;51.114;13.666;2023-03-11T04:06:17;67011.66;;;-1.68;100.00
36354;BME280;22383;51.114;13.666;2023-03-11T04:08:50;67009.41;;;-1.71;100.00
36354;BME280;22383;51.114;13.666;2023-03-11T04:11:20;67013.69;;;-1.69;100.00
36354;BME280;22383;51.114;13.666;2023-03-11T04:13:48;67010.00;;;-1.70;100.00
36354;BME280;22383;51.114;13.666;2023-03-11T04:16:19;67012.00;;;-1.71;100.00
36354;BME280;22383;51.114;13.666;2023-03-11T04:18:48;67005.13;;;-1.72;100.00
36354;BME280;22383;51.114;13.666;2023-03-11T04:21:16;67014.81;;;-1.68;100.00
36354;BME280;22383;51.114;13.666;2023-03-11T04:23:45;67012.59;;;-1.70;100.00
36354;BME280;22383;51.114;13.666;2023-03-11T04:26:15;67011.66;;;-1.68;100.00
36354;BME280;22383;51.114;13.666;2023-03-11T04:28:42;67009.06;;;-1.68;100.00
36354;BME280;22383;51.114;13.666;2023-03-11T04:31:11;67010.53;;;-1.69;100.00
36354;BME280;22383;51.114;13.666;2023-03-11T04:33:39;67009.41;;;-1.71;100.00
36354;BME280;22383;51.114;13.666;2023-03-11T04:36:08;67013.13;;;-1.69;100.00
36354;BME280;22383;51.114;13.666;2023-03-11T04:38:37;67013.13;;;-1.69;100.00
36354;BME280;22383;51.114;13.666;2023-03-11T04:41:11;66963.66;;;-1.72;100.00
36354;BME280;22383;51.114;13.666;2023-03-11T04:43:43;67007.72;;;-1.72;100.00
36354;BME280;22383;51.114;13.666;2023-03-11T04:46:10;67009.22;;;-1.73;100.00
36354;BME280;22383;51.114;13.666;2023-03-11T04:48:40;67009.78;;;-1.73;100.00
36354;BME280;22383;51.114;13.666;2023-03-11T04:51:08;67008.63;;;-1.74;100.00
36354;BME280;22383;51.114;13.666;2023-03-11T04:53:35;67001.22;;;-1.76;100.00
36354;BME280;22383;51.114;13.666;2023-03-11T04:56:03;67008.63;;;-1.74;100.00
36354;BME280;22383;51.114;13.666;2023-03-11T04:58:32;67011.22;;;-1.74;100.00
36354;BME280;22383;51.114;13.666;2023-03-11T05:01:00;67007.19;;;-1.73;100.00
36354;BME280;22383;51.114;13.666;2023-03-11T05:03:28;67012.91;;;-1.72;100.00
36354;BME280;22383;51.114;13.666;2023-03-11T05:05:56;67007.72;;;-1.72;100.00
36354;BME280;22383;51.114;13.666;2023-03-11T05:08:24;67007.19;;;-1.73;100.00
36354;BME280;22383;51.114;13.666;2023-03-11T05:10:52;67012.59;;;-1.70;100.00
36354;BME280;22383;51.114;13.666;2023-03-11T05:13:21;67007.72;;;-1.72;100.00
36354;BME280;22383;51.114;13.666;2023-03-11T05:15:50;67006.63;;;-1.73;100.00
36354;BME280;22383;51.114;13.666;2023-03-11T05:18:19;67009.78;;;-1.73;100.00
36354;BME280;22383;51.114;13.666;2023-03-11T05:20:48;67009.22;;;-1.73;100.00
36354;BME280;22383;51.114;13.666;2023-03-11T05:23:18;67003.25;;;-1.76;100.00
36354;BME280;22383;51.114;13.666;2023-03-11T05:25:46;67005.50;;;-1.74;100.00
36354;BME280;22383;51.114;13.666;2023-03-11T05:28:13;67003.81;;;-1.76;100.00
36354;BME280;22383;51.114;13.666;2023-03-11T05:30:47;67007.72;;;-1.72;100.00
36354;BME280;22383;51.114;13.666;2023-03-11T05:33:20;67006.28;;;-1.71;100.00
36354;BME280;22383;51.114;13.666;2023-03-11T05:35:48;67011.09;;;-1.69;100.00
36354;BME280;22383;51.114;13.666;2023-03-11T05:38:19;67010.19;;;-1.67;100.00
36354;BME280;22383;51.114;13.666;2023-03-11T05:40:46;67017.28;;;-1.63;100.00
36354;BME280;22383;51.114;13.666;2023-03-11T05:43:14;67016.16;;;-1.64;100.00
36354;BME280;22383;51.114;13.666;2023-03-11T05:45:46;67012.66;;;-1.63;100.00
36354;BME280;22383;51.114;13.666;2023-03-11T05:48:14;66974.88;;;-1.62;100.00
36354;BME280;22383;51.114;13.666;2023-03-11T05:50:41;67016.72;;;-1.64;100.00
36354;BME280;22383;51.114;13.666;2023-03-11T05:53:09;67022.13;;;-1.61;100.00
36354;BME280;22383;51.114;13.666;2023-03-11T05:55:37;67018.97;;;-1.62;100.00
36354;BME280;22383;51.114;13.666;2023-03-11T05:58:05;67019.88;;;-1.63;100.00
36354;BME280;22383;51.114;13.666;2023-03-11T06:00:33;67016.38;;;-1.62;100.00
36354;BME280;22383;51.114;13.666;2023-03-11T06:03:02;67018.41;;;-1.62;100.00
36354;BME280;22383;51.114;13.666;2023-03-11T06:05:30;66970.03;;;-1.64;100.00
36354;BME280;22383;51.114;13.666;2023-03-11T06:07:57;67017.28;;;-1.63;100.00
36354;BME280;22383;51.114;13.666;2023-03-11T06:10:25;67015.59;;;-1.65;100.00
36354;BME280;22383;51.114;13.666;2023-03-11T06:12:53;67012.44;;;-1.65;100.00
36354;BME280;22383;51.114;13.666;2023-03-11T06:15:34;66970.38;;;-1.66;100.00
36354;BME280;22383;51.114;13.666;2023-03-11T06:18:03;67015.03;;;-1.65;100.00
36354;BME280;22383;51.114;13.666;2023-03-11T06:20:32;66972.06;;;-1.64;100.00
36354;BME280;22383;51.114;13.666;2023-03-11T06:22:59;67023.03;;;-1.63;100.00
36354;BME280;22383;51.114;13.666;2023-03-11T06:25:27;67021.00;;;-1.62;100.00
36354;BME280;22383;51.114;13.666;2023-03-11T06:27:55;67020.09;;;-1.61;100.00
36354;BME280;22383;51.114;13.666;2023-03-11T06:30:24;67023.78;;;-1.60;100.00
36354;BME280;22383;51.114;13.666;2023-03-11T06:32:59;67021.78;;;-1.59;100.00
36354;BME280;22383;51.114;13.666;2023-03-11T06:35:26;67024.38;;;-1.59;100.00
36354;BME280;22383;51.114;13.666;2023-03-11T06:37:54;67027.72;;;-1.56;100.00
36354;BME280;22383;51.114;13.666;2023-03-11T06:40:22;67027.16;;;-1.57;100.00
36354;BME280;22383;51.114;13.666;2023-03-11T06:42:50;66978.22;;;-1.59;100.00
36354;BME280;22383;51.114;13.666;2023-03-11T06:45:21;67022.34;;;-1.59;100.00
36354;BME280;22383;51.114;13.666;2023-03-11T06:47:49;67018.59;;;-1.60;100.00
36354;BME280;22383;51.114;13.666;2023-03-11T06:50:17;67021.78;;;-1.59;100.00
36354;BME280;22383;51.114;13.666;2023-03-11T06:52:44;67025.47;;;-1.58;100.00
36354;BME280;22383;51.114;13.666;2023-03-11T06:55:12;67021.78;;;-1.59;100.00
36354;BME280;22383;51.114;13.666;2023-03-11T06:57:40;66976.19;;;-1.58;100.00
36354;BME280;22383;51.114;13.666;2023-03-11T07:00:10;67026.25;;;-1.55;100.00
36354;BME280;22383;51.114;13.666;2023-03-11T07:02:45;67024.00;;;-1.57;100.00
36354;BME280;22383;51.114;13.666;2023-03-11T07:05:16;67019.19;;;-1.59;100.00
36354;BME280;22383;51.114;13.666;2023-03-11T07:07:44;67021.00;;;-1.62;100.00
36354;BME280;22383;51.114;13.666;2023-03-11T07:10:12;67018.19;;;-1.65;100.00
36354;BME280;22383;51.114;13.666;2023-03-11T07:12:40;67019.31;;;-1.64;100.00
36354;BME280;22383;51.114;13.666;2023-03-11T07:15:09;67021.00;;;-1.62;100.00
36354;BME280;22383;51.114;13.666;2023-03-11T07:17:36;67016.50;;;-1.66;100.00
36354;BME280;22383;51.114;13.666;2023-03-11T07:20:05;67015.03;;;-1.65;100.00
36354;BME280;22383;51.114;13.666;2023-03-11T07:22:33;67013.91;;;-1.66;100.00
36354;BME280;22383;51.114;13.666;2023-03-11T07:25:01;67011.88;;;-1.66;100.00
36354;BME280;22383;51.114;13.666;2023-03-11T07:27:28;66967.78;;;-1.66;100.00
36354;BME280;22383;51.114;13.666;2023-03-11T07:29:56;66964.97;;;-1.68;100.00
36354;BME280;22383;51.114;13.666;2023-03-11T07:32:24;67013.69;;;-1.69;100.00
36354;BME280;22383;51.114;13.666;2023-03-11T07:34:51;67015.38;;;-1.67;100.00
36354;BME280;22383;51.114;13.666;2023-03-11T07:37:19;67015.38;;;-1.67;100.00
36354;BME280;22383;51.114;13.666;2023-03-11T07:39:46;67016.50;;;-1.66;100.00
36354;BME280;22383;51.114;13.666;2023-03-11T07:42:14;67015.03;;;-1.65;100.00
36354;BME280;22383;51.114;13.666;2023-03-11T07:44:41;67014.25;;;-1.68;100.00
36354;BME280;22383;51.114;13.666;2023-03-11T07:47:09;67014.47;;;-1.66;100.00
36354;BME280;22383;51.114;13.666;2023-03-11T07:49:38;67017.06;;;-1.66;100.00
36354;BME280;22383;51.114;13.666;2023-03-11T07:52:05;67017.06;;;-1.66;100.00
36354;BME280;22383;51.114;13.666;2023-03-11T07:54:36;67012.78;;;-1.67;100.00
36354;BME280;22383;51.114;13.666;2023-03-11T07:57:04;66970.94;;;-1.65;100.00
36354;BME280;22383;51.114;13.666;2023-03-11T07:59:32;67018.75;;;-1.64;100.00
36354;BME280;22383;51.114;13.666;2023-03-11T08:02:01;67016.72;;;-1.64;100.00
36354;BME280;22383;51.114;13.666;2023-03-11T08:04:29;67022.69;;;-1.61;100.00
36354;BME280;22383;51.114;13.666;2023-03-11T08:06:57;67020.09;;;-1.61;100.00
36354;BME280;22383;51.114;13.666;2023-03-11T08:09:25;67025.47;;;-1.58;100.00
36354;BME280;22383;51.114;13.666;2023-03-11T08:11:52;67025.47;;;-1.58;100.00
36354;BME280;22383;51.114;13.666;2023-03-11T08:14:20;67026.25;;;-1.55;100.00
36354;BME280;22383;51.114;13.666;2023-03-11T08:16:48;67024.22;;;-1.55;100.00
36354;BME280;22383;51.114;13.666;2023-03-11T08:19:16;67031.66;;;-1.53;100.00
36354;BME280;22383;51.114;13.666;2023-03-11T08:21:43;67031.66;;;-1.53;100.00
36354;BME280;22383;51.114;13.666;2023-03-11T08:24:12;67034.47;;;-1.50;100.00
36354;BME280;22383;51.114;13.666;2023-03-11T08:26:40;67035.25;;;-1.47;100.00
36354;BME280;22383;51.114;13.666;2023-03-11T08:29:08;67032.66;;;-1.47;100.00
36354;BME280;22383;51.114;13.666;2023-03-11T08:31:35;67036.78;;;-1.41;100.00
36354;BME280;22383;51.114;13.666;2023-03-11T08:34:05;67036.94;;;-1.45;100.00
36354;BME280;22383;51.114;13.666;2023-03-11T08:36:34;67035.78;;;-1.46;100.00
36354;BME280;22383;51.114;13.666;2023-03-11T08:39:01;67038.03;;;-1.44;100.00
36354;BME280;22383;51.114;13.666;2023-03-11T08:41:29;67035.25;;;-1.47;100.00
36354;BME280;22383;51.114;13.666;2023-03-11T08:43:57;67041.41;;;-1.41;100.00
36354;BME280;22383;51.114;13.666;2023-03-11T08:46:30;67043.09;;;-1.40;100.00
36354;BME280;22383;51.114;13.666;2023-03-11T08:48:58;67045.34;;;-1.38;100.00
36354;BME280;22383;51.114;13.666;2023-03-11T08:51:29;67004.59;;;-1.35;100.00
36354;BME280;22383;51.114;13.666;2023-03-11T08:53:57;67049.81;;;-1.34;100.00
36354;BME280;22383;51.114;13.666;2023-03-11T08:56:25;67005.94;;;-1.31;100.00
36354;BME280;22383;51.114;13.666;2023-03-11T08:58:53;67052.09;;;-1.31;100.00
36354;BME280;22383;51.114;13.666;2023-03-11T09:01:20;67050.19;;;-1.36;100.00
36354;BME280;22383;51.114;13.666;2023-03-11T09:03:54;67048.13;;;-1.35;100.00
36354;BME280;22383;51.114;13.666;2023-03-11T09:06:22;67043.09;;;-1.40;100.00
36354;BME280;22383;51.114;13.666;2023-03-11T09:08:54;67036.72;;;-1.48;100.00
36354;BME280;22383;51.114;13.666;2023-03-11T09:11:22;67030.53;;;-1.54;100.00
36354;BME280;22383;51.114;13.666;2023-03-11T09:13:49;67026.25;;;-1.55;100.00
36354;BME280;22383;51.114;13.666;2023-03-11T09:16:21;67023.78;;;-1.60;100.00
36354;BME280;22383;51.114;13.666;2023-03-11T09:18:49;67011.31;;;-1.66;100.00
36354;BME280;22383;51.114;13.666;2023-03-11T09:21:17;67015.38;;;-1.67;100.00
36354;BME280;22383;51.114;13.666;2023-03-11T09:23:45;67009.06;;;-1.68;100.00
36354;BME280;22383;51.114;13.666;2023-03-11T09:26:13;67010.00;;;-1.70;100.00
36354;BME280;22383;51.114;13.666;2023-03-11T09:28:41;67011.09;;;-1.69;100.00
36354;BME280;22383;51.114;13.666;2023-03-11T09:31:09;67010.53;;;-1.69;100.00
36354;BME280;22383;51.114;13.666;2023-03-11T09:33:38;67017.63;;;-1.65;100.00
36354;BME280;22383;51.114;13.666;2023-03-11T09:36:07;67018.19;;;-1.65;100.00
36354;BME280;22383;51.114;13.666;2023-03-11T09:38:34;67015.38;;;-1.67;100.00
36354;BME280;22383;51.114;13.666;2023-03-11T09:41:24;67021.00;;;-1.62;100.00
36354;BME280;22383;51.114;13.666;2023-03-11T09:55:55;67041.19;;;-1.44;100.00
36354;BME280;22383;51.114;13.666;2023-03-11T10:01:32;67043.09;;;-1.40;100.00
36354;BME280;22383;51.114;13.666;2023-03-11T10:04:26;67044.97;;;-1.36;100.00
36354;BME280;22383;51.114;13.666;2023-03-11T10:06:55;67048.34;;;-1.33;100.00
36354;BME280;22383;51.114;13.666;2023-03-11T10:09:34;67058.25;;;-1.26;100.00
36354;BME280;22383;51.114;13.666;2023-03-11T10:12:14;67056.22;;;-1.25;100.00
36354;BME280;22383;51.114;13.666;2023-03-11T10:18:04;67080.13;;;-1.06;100.00
36354;BME280;22383;51.114;13.666;2023-03-11T10:26:35;67113.06;;;-0.78;100.00
36354;BME280;22383;51.114;13.666;2023-03-11T10:29:27;67112.94;;;-0.73;100.00
36354;BME280;22383;51.114;13.666;2023-03-11T10:34:54;67117.91;;;-0.76;100.00
36354;BME280;22383;51.114;13.666;2023-03-11T10:37:39;67109.00;;;-0.77;100.00
36354;BME280;22383;51.114;13.666;2023-03-11T10:40:31;67112.16;;;-0.77;100.00
36354;BME280;22383;51.114;13.666;2023-03-11T10:43:02;67121.13;;;-0.68;100.00
36354;BME280;22383;51.114;13.666;2023-03-11T10:45:40;67122.38;;;-0.72;100.00
36354;BME280;22383;51.114;13.666;2023-03-11T10:48:15;67111.38;;;-0.80;100.00
36354;BME280;22383;51.114;13.666;2023-03-11T10:51:25;67098.88;;;-0.86;100.00
36354;BME280;22383;51.114;13.666;2023-03-11T10:53:58;67110.47;;;-0.78;100.00
36354;BME280;22383;51.114;13.666;2023-03-11T10:56:28;67105.41;;;-0.83;100.00
36354;BME280;22383;51.114;13.666;2023-03-11T10:58:56;67048.56;;;-0.92;100.00
36354;BME280;22383;51.114;13.666;2023-03-11T11:01:25;67097.91;;;-0.92;100.00
36354;BME280;22383;51.114;13.666;2023-03-11T11:03:55;67101.81;;;-0.88;100.00
36354;BME280;22383;51.114;13.666;2023-03-11T11:09:17;67088.00;;;-0.99;100.00
36354;BME280;22383;51.114;13.666;2023-03-11T11:12:13;67079.59;;;-1.06;100.00
36354;BME280;22383;51.114;13.666;2023-03-11T11:14:48;67082.97;;;-1.03;100.00
36354;BME280;22383;51.114;13.666;2023-03-11T11:17:22;67091.72;;;-0.98;100.00
36354;BME280;22383;51.114;13.666;2023-03-11T11:19:51;67097.75;;;-0.87;100.00
36354;BME280;22383;51.114;13.666;2023-03-11T11:22:21;67104.84;;;-0.83;100.00
36354;BME280;22383;51.114;13.666;2023-03-11T11:24:52;67105.06;;;-0.81;100.00
36354;BME280;22383;51.114;13.666;2023-03-11T11:27:23;67094.38;;;-0.90;100.00
36354;BME280;22383;51.114;13.666;2023-03-11T11:32:36;67096.75;;;-0.93;100.00
36354;BME280;22383;51.114;13.666;2023-03-11T11:35:13;67092.50;;;-0.94;100.00
36354;BME280;22383;51.114;13.666;2023-03-11T11:37:53;67131.25;;;-0.59;100.00
36354;BME280;22383;51.114;13.666;2023-03-11T11:40:29;67170.91;;;-0.25;100.00
36354;BME280;22383;51.114;13.666;2023-03-11T11:43:02;67192.69;;;-0.01;100.00
36354;BME280;22383;51.114;13.666;2023-03-11T11:45:42;67167.97;;;-0.23;100.00
36354;BME280;22383;51.114;13.666;2023-03-11T11:48:43;67167.97;;;-0.23;100.00
36354;BME280;22383;51.114;13.666;2023-03-11T11:51:23;67146.78;;;-0.47;100.00
36354;BME280;22383;51.114;13.666;2023-03-11T11:54:16;67139.09;;;-0.52;100.00
36354;BME280;22383;51.114;13.666;2023-03-11T11:56:45;67135.19;;;-0.55;100.00
36354;BME280;22383;51.114;13.666;2023-03-11T11:59:17;67123.94;;;-0.66;100.00
36354;BME280;22383;51.114;13.666;2023-03-11T12:04:36;67135.53;;;-0.58;100.00
36354;BME280;22383;51.114;13.666;2023-03-11T12:12:35;67072.47;;;-0.72;100.00
36354;BME280;22383;51.114;13.666;2023-03-11T12:15:27;67118.31;;;-0.71;100.00
36354;BME280;22383;51.114;13.666;2023-03-11T12:18:07;67125.41;;;-0.67;100.00
36354;BME280;22383;51.114;13.666;2023-03-11T12:20:52;67117.00;;;-0.74;100.00
36354;BME280;22383;51.114;13.666;2023-03-11T12:31:12;67109.91;;;-0.79;100.00
36354;BME280;22383;51.114;13.666;2023-03-11T12:34:10;67108.78;;;-0.80;100.00
36354;BME280;22383;51.114;13.666;2023-03-11T12:36:43;67046.09;;;-0.97;100.00
36354;BME280;22383;51.114;13.666;2023-03-11T12:39:23;67078.81;;;-1.09;100.00
36354;BME280;22383;51.114;13.666;2023-03-11T12:44:38;67077.34;;;-1.08;100.00
36354;BME280;22383;51.114;13.666;2023-03-11T12:49:41;67077.53;;;-1.06;100.00
36354;BME280;22383;51.114;13.666;2023-03-11T12:57:30;67069.69;;;-1.13;100.00
36354;BME280;22383;51.114;13.666;2023-03-11T13:05:59;67104.28;;;-0.84;100.00
36354;BME280;22383;51.114;13.666;2023-03-11T13:14:34;67142.47;;;-0.49;100.00
36354;BME280;22383;51.114;13.666;2023-03-11T13:19:56;67201.13;;;0.07;100.00
36354;BME280;22383;51.114;13.666;2023-03-11T13:23:06;67201.13;;;0.07;100.00
36354;BME280;22383;51.114;13.666;2023-03-11T13:25:37;67193.41;;;-0.05;100.00
36354;BME280;22383;51.114;13.666;2023-03-11T13:28:48;67176.19;;;-0.18;100.00
36354;BME280;22383;51.114;13.666;2023-03-11T13:34:15;67156.16;;;-0.34;100.00
36354;BME280;22383;51.114;13.666;2023-03-11T13:37:04;67144.72;;;-0.47;100.00
36354;BME280;22383;51.114;13.666;2023-03-11T13:39:38;67142.47;;;-0.49;100.00
36354;BME280;22383;51.114;13.666;2023-03-11T13:44:53;67142.81;;;-0.51;100.00
36354;BME280;22383;51.114;13.666;2023-03-11T13:47:20;67142.47;;;-0.49;100.00
36354;BME280;22383;51.114;13.666;2023-03-11T13:49:54;67147.53;;;-0.44;100.00
36354;BME280;22383;51.114;13.666;2023-03-11T13:52:38;67151.81;;;-0.43;100.00
36354;BME280;22383;51.114;13.666;2023-03-11T13:55:21;67152.38;;;-0.42;100.00
36354;BME280;22383;51.114;13.666;2023-03-11T13:57:54;67153.50;;;-0.41;100.00
36354;BME280;22383;51.114;13.666;2023-03-11T14:00:27;67151.47;;;-0.41;100.00
36354;BME280;22383;51.114;13.666;2023-03-11T14:03:03;67143.81;;;-0.45;100.00
36354;BME280;22383;51.114;13.666;2023-03-11T14:05:44;67149.78;;;-0.42;100.00
36354;BME280;22383;51.114;13.666;2023-03-11T14:10:55;67177.09;;;-0.20;100.00
36354;BME280;22383;51.114;13.666;2023-03-11T14:13:25;67192.84;;;-0.05;100.00
36354;BME280;22383;51.114;13.666;2023-03-11T14:16:21;67181.59;;;-0.15;100.00
36354;BME280;22383;51.114;13.666;2023-03-11T14:19:03;67175.63;;;-0.18;100.00
36354;BME280;22383;51.114;13.666;2023-03-11T14:21:34;67199.56;;;0.01;100.00
36354;BME280;22383;51.114;13.666;2023-03-11T14:24:02;67242.50;;;0.43;100.00
36354;BME280;22383;51.114;13.666;2023-03-11T14:26:33;67220.22;;;0.25;100.00